Wetterdaten: Woche 21.03.05 - 27.03.05 (KW12)
Datum Zeit Temperatur Luftfeuchte Luftdruck Niederschlag Wind Richtung Sonne Solar Taupunkt Windchill
21.03.2005 00:00 7.1 C 90 % 1018.5 hPa 0.0 l/m 0.1 km/h (0 Bft) N 0.00 h 0 W/m 5.5 C 7.1 C
21.03.2005 01:00 6.1 C 97 % 1017.7 hPa 0.0 l/m 0.0 km/h (0 Bft) N 0.00 h 0 W/m 5.6 C 6.1 C
21.03.2005 02:00 5.0 C 99 % 1017.8 hPa 0.0 l/m 0.0 km/h (0 Bft) N 0.00 h 0 W/m 4.9 C 5.0 C
21.03.2005 03:00 4.1 C 100 % 1016.9 hPa 0.0 l/m 0.0 km/h (0 Bft) N 0.00 h 0 W/m 4.1 C 4.1 C
21.03.2005 04:00 4.0 C 100 % 1017.0 hPa 0.0 l/m 0.0 km/h (0 Bft) N 0.00 h 0 W/m 4.0 C 4.0 C
21.03.2005 05:00 3.4 C 100 % 1017.2 hPa 0.0 l/m 0.0 km/h (0 Bft) N 0.00 h 0 W/m 3.4 C 3.4 C
21.03.2005 06:00 3.2 C 100 % 1017.6 hPa 0.0 l/m 0.0 km/h (0 Bft) N 0.00 h 15 W/m 3.2 C 3.2 C
21.03.2005 07:00 4.7 C 98 % 1017.9 hPa 0.0 l/m 0.1 km/h (0 Bft) W-NW 0.00 h 44 W/m 4.4 C 4.7 C
21.03.2005 08:00 6.1 C 89 % 1017.7 hPa 0.0 l/m 0.3 km/h (0 Bft) NO 0.00 h 101 W/m 4.3 C 6.1 C
21.03.2005 09:00 7.3 C 82 % 1017.5 hPa 0.0 l/m 0.9 km/h (0 Bft) O-SO 0.00 h 133 W/m 4.5 C 7.1 C
21.03.2005 10:00 8.9 C 77 % 1017.3 hPa 0.0 l/m 2.0 km/h (1 Bft) O-SO 0.00 h 265 W/m 5.1 C 8.7 C
21.03.2005 11:00 11.4 C 68 % 1016.5 hPa 0.0 l/m 2.7 km/h (1 Bft) N 0.80 h 568 W/m 5.7 C 11.4 C
21.03.2005 12:00 13.6 C 62 % 1015.6 hPa 0.0 l/m 8.7 km/h (2 Bft) O-SO 1.00 h 708 W/m 6.5 C 13.6 C
21.03.2005 13:00 14.8 C 59 % 1014.6 hPa 0.0 l/m 3.9 km/h (1 Bft) O-SO 1.00 h 673 W/m 6.7 C 14.8 C
21.03.2005 14:00 16.2 C 57 % 1013.4 hPa 0.0 l/m 11.6 km/h (2 Bft) O-SO 1.00 h 615 W/m 7.7 C 16.2 C
21.03.2005 15:00 16.7 C 57 % 1013.2 hPa 0.0 l/m 15.4 km/h (3 Bft) O-SO 1.00 h 465 W/m 8.0 C 16.7 C
21.03.2005 16:00 16.6 C 57 % 1012.4 hPa 0.0 l/m 16.5 km/h (3 Bft) O-SO 1.00 h 349 W/m 8.0 C 16.6 C
21.03.2005 17:00 15.7 C 57 % 1012.3 hPa 0.0 l/m 16.5 km/h (3 Bft) O-SO 0.87 h 175 W/m 7.2 C 15.7 C
21.03.2005 18:00 13.7 C 63 % 1012.5 hPa 0.0 l/m 7.5 km/h (2 Bft) O-SO 0.03 h 24 W/m 6.8 C 13.7 C
21.03.2005 19:00 11.3 C 74 % 1013.7 hPa 0.0 l/m 2.4 km/h (1 Bft) O-SO 0.00 h 0 W/m 6.9 C 11.3 C
21.03.2005 20:00 11.3 C 66 % 1013.9 hPa 0.0 l/m 2.3 km/h (1 Bft) O 0.00 h 0 W/m 5.2 C 11.3 C
21.03.2005 21:00 9.6 C 72 % 1014.1 hPa 0.0 l/m 2.8 km/h (1 Bft) O-SO 0.00 h 0 W/m 4.7 C 9.6 C
21.03.2005 22:00 7.9 C 79 % 1014.4 hPa 0.0 l/m 0.1 km/h (0 Bft) N 0.00 h 0 W/m 4.5 C 7.9 C
21.03.2005 23:00 6.8 C 87 % 1015.3 hPa 0.0 l/m 0.0 km/h (0 Bft) N 0.00 h 0 W/m 4.7 C 6.8 C
22.03.2005 00:00 6.2 C 90 % 1015.0 hPa 0.0 l/m 0.0 km/h (0 Bft) N 0.00 h 0 W/m 4.6 C 6.2 C
22.03.2005 01:00 5.4 C 93 % 1014.7 hPa 0.0 l/m 0.0 km/h (0 Bft) N 0.00 h 0 W/m 4.3 C 5.4 C
22.03.2005 02:00 4.8 C 96 % 1014.8 hPa 0.0 l/m 0.0 km/h (0 Bft) N 0.00 h 0 W/m 4.2 C 4.8 C
22.03.2005 03:00 4.2 C 98 % 1014.9 hPa 0.0 l/m 0.0 km/h (0 Bft) N 0.00 h 0 W/m 3.9 C 4.2 C
22.03.2005 04:00 3.7 C 99 % 1014.9 hPa 0.0 l/m 0.0 km/h (0 Bft) N 0.00 h 0 W/m 3.6 C 3.7 C
22.03.2005 05:00 3.4 C 100 % 1015.0 hPa 0.0 l/m 0.0 km/h (0 Bft) N 0.00 h 0 W/m 3.4 C 3.4 C
22.03.2005 06:00 3.2 C 100 % 1014.5 hPa 0.0 l/m 0.0 km/h (0 Bft) N 0.03 h 18 W/m 3.2 C 3.2 C
22.03.2005 07:00 4.3 C 94 % 1014.7 hPa 0.0 l/m 0.0 km/h (0 Bft) NW 0.33 h 103 W/m 3.5 C 4.3 C
22.03.2005 08:00 5.7 C 85 % 1014.6 hPa 0.0 l/m 0.3 km/h (0 Bft) N 0.57 h 230 W/m 3.3 C 5.7 C
22.03.2005 09:00 8.0 C 69 % 1014.3 hPa 0.0 l/m 1.1 km/h (1 Bft) W-NW 0.80 h 319 W/m 2.7 C 8.0 C
22.03.2005 10:00 9.4 C 64 % 1014.1 hPa 0.0 l/m 1.5 km/h (1 Bft) W-NW 0.00 h 285 W/m 3.0 C 9.3 C
22.03.2005 11:00 12.0 C 58 % 1013.8 hPa 0.0 l/m 0.8 km/h (0 Bft) O-NO 0.50 h 413 W/m 4.1 C 12.0 C
22.03.2005 12:00 13.5 C 57 % 1013.6 hPa 0.0 l/m 2.0 km/h (1 Bft) O 0.00 h 304 W/m 5.2 C 13.5 C
22.03.2005 13:00 15.2 C 57 % 1013.4 hPa 0.0 l/m 2.8 km/h (1 Bft) SO 0.10 h 358 W/m 6.7 C 15.2 C
22.03.2005 14:00 15.4 C 59 % 1013.3 hPa 0.0 l/m 5.8 km/h (1 Bft) SO 0.00 h 203 W/m 7.4 C 15.4 C
22.03.2005 15:00 14.5 C 61 % 1013.4 hPa 0.0 l/m 0.9 km/h (0 Bft) S 0.00 h 112 W/m 7.1 C 14.5 C
22.03.2005 16:00 13.2 C 78 % 1014.0 hPa 0.0 l/m 7.0 km/h (2 Bft) S-SW 0.00 h 66 W/m 9.4 C 13.2 C
22.03.2005 17:00 12.2 C 89 % 1014.8 hPa 0.0 l/m 2.8 km/h (1 Bft) S-SO 0.00 h 22 W/m 10.4 C 12.2 C
22.03.2005 18:00 11.8 C 91 % 1015.7 hPa 0.3 l/m 1.4 km/h (1 Bft) SO 0.00 h 4 W/m 10.4 C 11.8 C
22.03.2005 19:00 11.5 C 95 % 1016.9 hPa 0.0 l/m 4.3 km/h (1 Bft) SO 0.00 h 0 W/m 10.7 C 11.5 C
22.03.2005 20:00 11.3 C 98 % 1017.8 hPa 0.3 l/m 2.0 km/h (1 Bft) SO 0.00 h 0 W/m 11.0 C 11.3 C
22.03.2005 21:00 10.9 C 100 % 1018.4 hPa 0.3 l/m 1.3 km/h (1 Bft) O-SO 0.00 h 0 W/m 10.9 C 10.9 C
22.03.2005 22:00 10.6 C 100 % 1019.2 hPa 0.3 l/m 0.3 km/h (0 Bft) SO 0.00 h 0 W/m 10.6 C 10.6 C
22.03.2005 23:00 10.4 C 100 % 1019.2 hPa 0.3 l/m 0.2 km/h (0 Bft) SO 0.00 h 0 W/m 10.4 C 10.4 C
23.03.2005 00:00 10.2 C 100 % 1020.1 hPa 0.0 l/m 0.0 km/h (0 Bft) N 0.00 h 0 W/m 10.2 C 10.2 C
23.03.2005 01:00 10.0 C 100 % 1020.3 hPa 0.0 l/m 0.7 km/h (0 Bft) NO 0.00 h 0 W/m 10.0 C 10.0 C
23.03.2005 02:00 9.9 C 100 % 1020.3 hPa 0.3 l/m 0.0 km/h (0 Bft) N 0.00 h 0 W/m 9.9 C 9.9 C
23.03.2005 03:00 9.9 C 100 % 1020.3 hPa 0.0 l/m 0.0 km/h (0 Bft) N 0.00 h 0 W/m 9.9 C 9.9 C
23.03.2005 04:00 9.8 C 100 % 1020.3 hPa 0.3 l/m 0.0 km/h (0 Bft) N 0.00 h 0 W/m 9.8 C 9.8 C
23.03.2005 05:00 9.8 C 100 % 1020.3 hPa 0.0 l/m 0.8 km/h (0 Bft) O 0.00 h 0 W/m 9.8 C 9.7 C
23.03.2005 06:00 9.6 C 100 % 1020.3 hPa 0.0 l/m 0.0 km/h (0 Bft) N 0.00 h 7 W/m 9.6 C 9.6 C
23.03.2005 07:00 10.1 C 100 % 1020.3 hPa 0.0 l/m 0.0 km/h (0 Bft) N 0.00 h 37 W/m 10.1 C 10.1 C
23.03.2005 08:00 10.5 C 100 % 1020.2 hPa 0.0 l/m 0.0 km/h (0 Bft) N 0.00 h 74 W/m 10.5 C 10.5 C
23.03.2005 09:00 11.3 C 100 % 1020.1 hPa 0.0 l/m 0.0 km/h (0 Bft) N 0.03 h 177 W/m 11.3 C 11.3 C
23.03.2005 10:00 12.5 C 93 % 1019.9 hPa 0.0 l/m 0.5 km/h (0 Bft) W-NW 0.03 h 196 W/m 11.3 C 12.5 C
23.03.2005 11:00 13.2 C 87 % 1018.8 hPa 0.0 l/m 0.5 km/h (0 Bft) W-NW 0.00 h 213 W/m 11.0 C 13.2 C
23.03.2005 12:00 14.6 C 79 % 1018.6 hPa 0.0 l/m 0.2 km/h (0 Bft) O-NO 0.07 h 292 W/m 11.0 C 14.6 C
23.03.2005 13:00 17.1 C 66 % 1017.3 hPa 0.0 l/m 1.6 km/h (1 Bft) NO 0.80 h 612 W/m 10.7 C 17.1 C
23.03.2005 14:00 18.0 C 62 % 1016.4 hPa 0.0 l/m 4.2 km/h (1 Bft) O 0.97 h 619 W/m 10.6 C 18.0 C
23.03.2005 15:00 18.8 C 59 % 1015.9 hPa 0.0 l/m 10.4 km/h (2 Bft) O-SO 1.00 h 537 W/m 10.6 C 18.8 C
23.03.2005 16:00 18.6 C 59 % 1015.0 hPa 0.0 l/m 5.1 km/h (1 Bft) O-SO 1.00 h 362 W/m 10.3 C 18.6 C
23.03.2005 17:00 18.0 C 59 % 1015.1 hPa 0.0 l/m 6.2 km/h (2 Bft) O-SO 1.00 h 184 W/m 9.9 C 18.0 C
23.03.2005 18:00 16.6 C 64 % 1015.2 hPa 0.0 l/m 0.9 km/h (0 Bft) N-NO 0.20 h 34 W/m 9.8 C 16.6 C
23.03.2005 19:00 14.8 C 71 % 1016.0 hPa 0.0 l/m 2.4 km/h (1 Bft) NO 0.00 h 0 W/m 9.6 C 14.8 C
23.03.2005 20:00 13.9 C 74 % 1016.6 hPa 0.0 l/m 1.1 km/h (0 Bft) N-NO 0.00 h 0 W/m 9.4 C 13.9 C
23.03.2005 21:00 12.8 C 79 % 1016.8 hPa 0.0 l/m 0.2 km/h (0 Bft) NO 0.00 h 0 W/m 9.3 C 12.8 C
23.03.2005 22:00 11.3 C 87 % 1017.0 hPa 0.0 l/m 0.1 km/h (0 Bft) N 0.00 h 0 W/m 9.1 C 11.3 C
23.03.2005 23:00 10.2 C 93 % 1017.1 hPa 0.0 l/m 0.0 km/h (0 Bft) N 0.00 h 0 W/m 9.1 C 10.2 C
24.03.2005 00:00 9.3 C 96 % 1017.3 hPa 0.0 l/m 0.0 km/h (0 Bft) N 0.00 h 0 W/m 8.7 C 9.3 C
24.03.2005 01:00 8.3 C 99 % 1017.4 hPa 0.0 l/m 0.3 km/h (0 Bft) W-NW 0.00 h 0 W/m 8.1 C 8.3 C
24.03.2005 02:00 7.7 C 99 % 1017.5 hPa 0.0 l/m 1.5 km/h (1 Bft) W-NW 0.00 h 0 W/m 7.5 C 7.4 C
24.03.2005 03:00 6.7 C 100 % 1017.6 hPa 0.0 l/m 0.0 km/h (0 Bft) N 0.00 h 0 W/m 6.7 C 6.7 C
24.03.2005 04:00 6.3 C 100 % 1017.7 hPa 0.0 l/m 0.0 km/h (0 Bft) N 0.00 h 0 W/m 6.3 C 6.3 C
24.03.2005 05:00 6.5 C 100 % 1017.6 hPa 0.0 l/m 0.3 km/h (0 Bft) O-SO 0.00 h 0 W/m 6.5 C 6.5 C
24.03.2005 06:00 6.7 C 100 % 1018.3 hPa 0.0 l/m 0.0 km/h (0 Bft) N 0.00 h 10 W/m 6.7 C 6.7 C
24.03.2005 07:00 7.7 C 100 % 1018.5 hPa 0.0 l/m 0.0 km/h (0 Bft) N 0.00 h 46 W/m 7.7 C 7.7 C
24.03.2005 08:00 9.3 C 96 % 1018.3 hPa 0.0 l/m 0.4 km/h (0 Bft) S 0.00 h 102 W/m 8.6 C 9.2 C
24.03.2005 09:00 10.6 C 89 % 1018.2 hPa 0.0 l/m 1.0 km/h (0 Bft) NW 0.00 h 160 W/m 8.8 C 10.6 C
24.03.2005 10:00 12.4 C 81 % 1018.8 hPa 0.0 l/m 0.5 km/h (0 Bft) O-SO 0.00 h 235 W/m 9.3 C 12.4 C
24.03.2005 11:00 13.5 C 77 % 1017.8 hPa 0.0 l/m 3.0 km/h (1 Bft) W-NW 0.27 h 385 W/m 9.5 C 13.5 C
24.03.2005 12:00 15.4 C 69 % 1017.5 hPa 0.0 l/m 0.5 km/h (0 Bft) W-SW 1.00 h 666 W/m 9.8 C 15.4 C
24.03.2005 13:00 16.2 C 68 % 1016.9 hPa 0.0 l/m 0.7 km/h (0 Bft) W 0.20 h 372 W/m 10.2 C 16.2 C
24.03.2005 14:00 18.0 C 63 % 1016.1 hPa 0.0 l/m 0.2 km/h (0 Bft) W 0.43 h 394 W/m 10.8 C 18.0 C
24.03.2005 15:00 19.4 C 57 % 1015.9 hPa 0.0 l/m 0.5 km/h (0 Bft) NW 0.47 h 331 W/m 10.7 C 19.4 C
24.03.2005 16:00 18.9 C 56 % 1015.1 hPa 0.0 l/m 2.2 km/h (1 Bft) W-NW 0.23 h 174 W/m 9.9 C 18.9 C
24.03.2005 17:00 17.5 C 58 % 1015.1 hPa 0.0 l/m 6.5 km/h (2 Bft) W-NW 0.00 h 60 W/m 9.2 C 17.5 C
24.03.2005 18:00 14.4 C 82 % 1016.4 hPa 0.9 l/m 7.6 km/h (2 Bft) W-NW 0.00 h 5 W/m 11.3 C 14.4 C
24.03.2005 19:00 13.1 C 95 % 1016.7 hPa 0.0 l/m 3.6 km/h (1 Bft) O-SO 0.00 h 0 W/m 12.3 C 13.1 C
24.03.2005 20:00 12.8 C 89 % 1017.9 hPa 0.9 l/m 10.5 km/h (2 Bft) W-NW 0.00 h 0 W/m 11.1 C 12.8 C
24.03.2005 21:00 11.3 C 99 % 1019.1 hPa 1.5 l/m 9.0 km/h (2 Bft) W-NW 0.00 h 0 W/m 11.2 C 11.3 C
24.03.2005 22:00 11.2 C 100 % 1019.1 hPa 1.5 l/m 2.3 km/h (1 Bft) SO 0.00 h 0 W/m 11.2 C 11.2 C
24.03.2005 23:00 11.0 C 100 % 1019.1 hPa 1.5 l/m 2.2 km/h (1 Bft) SO 0.00 h 0 W/m 11.0 C 11.0 C
25.03.2005 00:00 11.0 C 100 % 1019.1 hPa 1.2 l/m 2.7 km/h (1 Bft) S-SO 0.00 h 0 W/m 11.0 C 11.0 C
25.03.2005 01:00 10.9 C 100 % 1019.7 hPa 1.2 l/m 3.2 km/h (1 Bft) SO 0.00 h 0 W/m 10.9 C 10.9 C
25.03.2005 02:00 10.6 C 100 % 1019.2 hPa 0.9 l/m 2.8 km/h (1 Bft) SO 0.00 h 0 W/m 10.6 C 10.6 C
25.03.2005 03:00 10.4 C 100 % 1019.2 hPa 0.0 l/m 1.6 km/h (1 Bft) NO 0.00 h 0 W/m 10.4 C 10.4 C
25.03.2005 04:00 10.4 C 100 % 1019.2 hPa 0.0 l/m 2.2 km/h (1 Bft) S-SO 0.00 h 0 W/m 10.4 C 10.4 C
25.03.2005 05:00 10.3 C 100 % 1019.2 hPa 0.3 l/m 3.0 km/h (1 Bft) SO 0.00 h 0 W/m 10.3 C 10.3 C
25.03.2005 06:00 10.4 C 100 % 1019.2 hPa 0.0 l/m 1.6 km/h (1 Bft) W-NW 0.00 h 4 W/m 10.4 C 10.4 C
25.03.2005 07:00 10.6 C 100 % 1019.2 hPa 0.0 l/m 2.5 km/h (1 Bft) SO 0.00 h 30 W/m 10.5 C 10.6 C
25.03.2005 08:00 11.2 C 94 % 1019.1 hPa 0.0 l/m 2.1 km/h (1 Bft) W-NW 0.17 h 151 W/m 10.2 C 11.2 C
25.03.2005 09:00 12.4 C 84 % 1019.3 hPa 0.0 l/m 5.0 km/h (1 Bft) W 0.87 h 438 W/m 9.8 C 12.4 C
25.03.2005 10:00 13.3 C 75 % 1018.8 hPa 0.0 l/m 4.1 km/h (1 Bft) W-NW 0.67 h 516 W/m 8.9 C 13.3 C
25.03.2005 11:00 14.7 C 66 % 1018.6 hPa 0.0 l/m 4.2 km/h (1 Bft) W 0.40 h 516 W/m 8.5 C 14.7 C
25.03.2005 12:00 14.9 C 63 % 1017.6 hPa 0.0 l/m 2.4 km/h (1 Bft) W 0.13 h 315 W/m 7.9 C 14.9 C
25.03.2005 13:00 16.6 C 55 % 1017.0 hPa 0.0 l/m 2.0 km/h (1 Bft) W 0.73 h 602 W/m 7.5 C 16.6 C
25.03.2005 14:00 18.4 C 49 % 1015.9 hPa 0.0 l/m 5.4 km/h (1 Bft) O-SO 1.00 h 672 W/m 7.6 C 18.4 C
25.03.2005 15:00 18.1 C 46 % 1015.0 hPa 0.0 l/m 4.7 km/h (1 Bft) O-SO 1.00 h 555 W/m 6.3 C 18.1 C
25.03.2005 16:00 18.5 C 45 % 1014.4 hPa 0.0 l/m 3.0 km/h (1 Bft) W 1.00 h 432 W/m 6.4 C 18.5 C
25.03.2005 17:00 17.2 C 55 % 1014.1 hPa 0.0 l/m 8.2 km/h (2 Bft) O-SO 1.00 h 214 W/m 7.9 C 17.2 C
25.03.2005 18:00 14.3 C 70 % 1014.0 hPa 0.0 l/m 6.4 km/h (2 Bft) O-SO 0.57 h 45 W/m 8.9 C 14.3 C
25.03.2005 19:00 11.8 C 78 % 1013.8 hPa 0.0 l/m 2.0 km/h (1 Bft) O-SO 0.00 h 0 W/m 8.1 C 11.8 C
25.03.2005 20:00 10.6 C 86 % 1014.0 hPa 0.0 l/m 0.1 km/h (0 Bft) N 0.00 h 0 W/m 8.3 C 10.6 C
25.03.2005 21:00 9.0 C 93 % 1014.2 hPa 0.0 l/m 0.0 km/h (0 Bft) N 0.00 h 0 W/m 7.9 C 9.0 C
25.03.2005 22:00 7.8 C 99 % 1014.3 hPa 0.0 l/m 0.0 km/h (0 Bft) N 0.00 h 0 W/m 7.6 C 7.8 C
25.03.2005 23:00 7.1 C 100 % 1014.5 hPa 0.0 l/m 0.0 km/h (0 Bft) N 0.00 h 0 W/m 7.1 C 7.1 C
26.03.2005 00:00 6.5 C 100 % 1014.3 hPa 0.0 l/m 0.0 km/h (0 Bft) N 0.00 h 0 W/m 6.5 C 6.5 C
26.03.2005 01:00 6.0 C 100 % 1013.6 hPa 0.0 l/m 0.4 km/h (0 Bft) N-NO 0.00 h 0 W/m 6.0 C 6.0 C
26.03.2005 02:00 5.7 C 100 % 1013.6 hPa 0.0 l/m 0.0 km/h (0 Bft) N 0.00 h 0 W/m 5.7 C 5.7 C
26.03.2005 03:00 4.9 C 100 % 1013.5 hPa 0.3 l/m 0.5 km/h (0 Bft) NO 0.00 h 0 W/m 4.9 C 4.9 C
26.03.2005 04:00 5.4 C 100 % 1013.1 hPa 0.0 l/m 0.0 km/h (0 Bft) N 0.00 h 0 W/m 5.4 C 5.4 C
26.03.2005 05:00 5.6 C 100 % 1012.6 hPa 0.0 l/m 0.1 km/h (0 Bft) N 0.00 h 0 W/m 5.6 C 5.6 C
26.03.2005 06:00 5.9 C 100 % 1012.5 hPa 0.0 l/m 0.0 km/h (0 Bft) N 0.00 h 17 W/m 5.9 C 5.9 C
26.03.2005 07:00 6.5 C 100 % 1012.1 hPa 0.0 l/m 1.9 km/h (1 Bft) W-NW 0.00 h 30 W/m 6.5 C 6.2 C
26.03.2005 08:00 7.0 C 100 % 1011.3 hPa 0.3 l/m 1.4 km/h (1 Bft) W-NW 0.00 h 97 W/m 7.0 C 6.9 C
26.03.2005 09:00 8.7 C 96 % 1011.1 hPa 0.0 l/m 1.1 km/h (0 Bft) W-NW 0.00 h 216 W/m 8.1 C 8.6 C
26.03.2005 10:00 10.9 C 86 % 1009.9 hPa 0.0 l/m 4.8 km/h (1 Bft) O-SO 0.40 h 395 W/m 8.7 C 10.9 C
26.03.2005 11:00 12.2 C 78 % 1009.3 hPa 0.0 l/m 1.2 km/h (1 Bft) W 0.20 h 408 W/m 8.4 C 12.2 C
26.03.2005 12:00 14.1 C 70 % 1008.3 hPa 0.0 l/m 1.6 km/h (1 Bft) W 0.47 h 529 W/m 8.6 C 14.1 C
26.03.2005 13:00 15.1 C 68 % 1007.2 hPa 0.0 l/m 2.2 km/h (1 Bft) W-NW 0.20 h 386 W/m 9.1 C 15.1 C
26.03.2005 14:00 16.3 C 60 % 1006.5 hPa 0.0 l/m 2.1 km/h (1 Bft) W-NW 0.43 h 447 W/m 8.4 C 16.3 C
26.03.2005 15:00 16.8 C 59 % 1005.9 hPa 0.0 l/m 2.0 km/h (1 Bft) SO 0.00 h 163 W/m 8.7 C 16.8 C
26.03.2005 16:00 16.2 C 64 % 1005.4 hPa 0.0 l/m 5.3 km/h (1 Bft) O-SO 0.07 h 144 W/m 9.3 C 16.2 C
26.03.2005 17:00 15.4 C 69 % 1005.2 hPa 0.3 l/m 1.4 km/h (1 Bft) NW 0.00 h 30 W/m 9.7 C 15.4 C
26.03.2005 18:00 12.8 C 94 % 1006.2 hPa 0.3 l/m 1.4 km/h (1 Bft) O-NO 0.00 h 9 W/m 11.8 C 12.8 C
26.03.2005 19:00 11.9 C 99 % 1006.5 hPa 0.0 l/m 1.6 km/h (1 Bft) O-NO 0.00 h 0 W/m 11.7 C 11.9 C
26.03.2005 20:00 11.4 C 100 % 1006.6 hPa 0.0 l/m 0.0 km/h (0 Bft) N 0.00 h 0 W/m 11.4 C 11.4 C
26.03.2005 21:00 11.2 C 100 % 1006.6 hPa 0.0 l/m 0.0 km/h (0 Bft) N 0.00 h 0 W/m 11.2 C 11.2 C
26.03.2005 22:00 10.6 C 100 % 1007.1 hPa 2.4 l/m 6.7 km/h (2 Bft) O-SO 0.00 h 0 W/m 10.6 C 10.6 C
26.03.2005 23:00 10.4 C 100 % 1007.1 hPa 1.2 l/m 3.1 km/h (1 Bft) O-SO 0.00 h 0 W/m 10.4 C 10.4 C
27.03.2005 00:00 10.3 C 100 % 1007.8 hPa 0.9 l/m 1.0 km/h (0 Bft) W 0.00 h 0 W/m 10.3 C 10.3 C
27.03.2005 01:00 10.2 C 100 % 1007.2 hPa 2.7 l/m 0.8 km/h (0 Bft) O-SO 0.00 h 0 W/m 10.2 C 10.2 C
27.03.2005 03:00 10.0 C 100 % 1006.8 hPa 1.2 l/m 0.0 km/h (0 Bft) N 0.00 h 0 W/m 10.0 C 10.0 C
27.03.2005 04:00 9.9 C 100 % 1006.7 hPa 0.0 l/m 0.0 km/h (0 Bft) N 0.00 h 0 W/m 9.9 C 9.9 C
27.03.2005 05:00 9.4 C 100 % 1006.1 hPa 0.0 l/m 0.0 km/h (0 Bft) N 0.00 h 0 W/m 9.4 C 9.4 C
27.03.2005 06:00 9.6 C 100 % 1006.5 hPa 0.0 l/m 1.1 km/h (1 Bft) O-SO 0.00 h 0 W/m 9.6 C 9.5 C
27.03.2005 07:00 9.2 C 100 % 1006.4 hPa 0.0 l/m 0.0 km/h (0 Bft) N 0.00 h 23 W/m 9.2 C 9.2 C
27.03.2005 08:00 9.8 C 100 % 1006.8 hPa 0.0 l/m 0.0 km/h (0 Bft) N 0.00 h 41 W/m 9.8 C 9.8 C
27.03.2005 09:00 10.2 C 100 % 1006.8 hPa 0.0 l/m 0.0 km/h (0 Bft) N 0.00 h 61 W/m 10.2 C 10.2 C
27.03.2005 10:00 10.5 C 100 % 1006.7 hPa 0.6 l/m 0.0 km/h (0 Bft) N 0.00 h 93 W/m 10.5 C 10.5 C
27.03.2005 11:00 11.1 C 100 % 1007.4 hPa 0.6 l/m 0.0 km/h (0 Bft) N 0.00 h 143 W/m 11.1 C 11.1 C
27.03.2005 12:00 12.0 C 98 % 1007.6 hPa 0.9 l/m 0.1 km/h (0 Bft) N 0.00 h 219 W/m 11.7 C 12.0 C
27.03.2005 13:00 12.8 C 89 % 1007.4 hPa 0.0 l/m 1.5 km/h (1 Bft) W 0.17 h 349 W/m 11.1 C 12.8 C
27.03.2005 14:00 12.7 C 81 % 1007.5 hPa 0.0 l/m 9.1 km/h (2 Bft) W-NW 0.00 h 234 W/m 9.5 C 12.7 C
27.03.2005 15:00 13.2 C 76 % 1006.8 hPa 0.0 l/m 2.5 km/h (1 Bft) W-NW 0.12 h 261 W/m 9.1 C 13.2 C
27.03.2005 16:00 13.3 C 80 % 1006.7 hPa 0.0 l/m 4.1 km/h (1 Bft) SW 0.10 h 276 W/m 9.9 C 13.3 C
27.03.2005 17:00 12.5 C 83 % 1007.5 hPa 0.0 l/m 3.4 km/h (1 Bft) SO 0.00 h 91 W/m 9.6 C 12.5 C
27.03.2005 18:00 11.7 C 92 % 1007.6 hPa 0.6 l/m 3.1 km/h (1 Bft) SO 0.00 h 43 W/m 10.4 C 11.7 C
27.03.2005 19:00 11.0 C 96 % 1007.9 hPa 0.0 l/m 1.9 km/h (1 Bft) SO 0.23 h 25 W/m 10.4 C 11.0 C
27.03.2005 20:00 10.3 C 99 % 1008.8 hPa 0.0 l/m 1.7 km/h (1 Bft) SO 0.00 h 0 W/m 10.2 C 10.3 C
27.03.2005 21:00 9.7 C 100 % 1009.9 hPa 0.0 l/m 3.5 km/h (1 Bft) O-SO 0.00 h 0 W/m 9.7 C 9.5 C
27.03.2005 22:00 9.9 C 100 % 1010.0 hPa 1.5 l/m 2.5 km/h (1 Bft) O-SO 0.00 h 0 W/m 9.9 C 9.7 C
27.03.2005 23:00 9.5 C 100 % 1011.0 hPa 0.3 l/m 0.0 km/h (0 Bft) N 0.00 h 0 W/m 9.5 C 9.5 C
Min-Datum _ 21.03.05 25.03.05 26.03.05 - 21.03.05 - - - 22.03.05 21.03.05
_ Min-Zeit 06:26 16:03 16:54 - 00:02 - - - 09:32 06:26
Minimum _ 3.0 C 42 % 1004.8 hPa - 0.0 km/h (0 Bft) - - - 2.1 C 3.0 C
Max-Datum _ 24.03.05 21.03.05 23.03.05 27.03.05 24.03.05 - 21.03.05 25.03.05 23.03.05 24.03.05
_ Max-Zeit 15:54 03:00 06:10 01:06 20:18 - 17:39 11:51 09:58 15:54
Maximum _ 20.2 C 100 % 1020.4 hPa 2.7 l/m 32.5 km/h
W-NW (5 Bft)
- 0.05 h 950 W/m 12.6 C 20.2 C
Durchschnitt _ 11.0 C 86 % 1014.4 hPa #26.1 l/m 2.2 km/h (1 Bft) O-SO #26:39 h 243 W/m 8.4 C 11.0 C

Durchschnitt Minimum Temp.10.5 C
Durchschnitt Maximum Temp.11.5 C
© Kaiko 2005